Time;durP1;ratioP1;P1;durP2;ratioP2;P2;SDS_P1;SDS_P2;PMS_P1;PMS_P2;Temp;Humidity;BMP_temperature;BMP_pressure;BME280_temperature;BME280_humidity;BME280_pressure;Samples;Min_cycle;Max_cycle;Signal;HPM_P1;HPM_P2
2021/04/11 00:00:46;;;;;;;12.90;6.45;;;8.00;59.30;;;;;;1779433;81;21588;-81
2021/04/11 00:03:21;;;;;;;13.62;6.20;;;8.00;59.20;;;;;;1779492;80;21095;-81
2021/04/11 00:05:49;;;;;;;11.08;5.97;;;7.90;59.50;;;;;;1779676;80;21157;-82
2021/04/11 00:08:18;;;;;;;14.20;6.65;;;8.00;59.30;;;;;;1779579;81;21145;-80
2021/04/11 00:10:53;;;;;;;13.38;6.42;;;8.00;59.00;;;;;;1779202;81;21300;-81
2021/04/11 00:13:26;;;;;;;11.50;6.28;;;7.90;59.60;;;;;;1778411;80;21928;-80
2021/04/11 00:15:54;;;;;;;13.35;6.28;;;7.90;59.30;;;;;;1779498;80;21153;-82
2021/04/11 00:18:22;;;;;;;12.90;6.47;;;7.80;59.60;;;;;;1779414;80;21138;-81
2021/04/11 00:20:51;;;;;;;13.05;5.60;;;7.80;60.90;;;;;;1779299;80;21197;-82
2021/04/11 00:23:22;;;;;;;12.13;5.80;;;7.70;59.00;;;;;;1779302;80;21291;-81
2021/04/11 00:25:51;;;;;;;11.25;5.67;;;7.70;58.90;;;;;;1779306;80;21268;-82
2021/04/11 00:28:19;;;;;;;9.65;5.12;;;7.60;59.00;;;;;;1779199;80;21335;-81
2021/04/11 00:30:47;;;;;;;10.80;4.95;;;7.50;59.70;;;;;;1779475;80;21295;-82
2021/04/11 00:33:32;;;;;;;10.38;5.03;;;7.40;60.00;;;;;;1779478;80;21122;-83
2021/04/11 00:36:04;;;;;;;11.40;5.08;;;7.40;60.50;;;;;;1780546;80;21145;-80
2021/04/11 00:38:34;;;;;;;10.13;4.97;;;7.40;61.90;;;;;;1785121;80;21727;-82
2021/04/11 00:41:18;;;;;;;12.20;5.78;;;7.50;60.90;;;;;;1784972;80;21330;-80
2021/04/11 00:43:47;;;;;;;13.32;5.60;;;7.50;59.70;;;;;;1785208;80;21560;-81
2021/04/11 00:46:36;;;;;;;10.45;5.40;;;7.50;60.00;;;;;;1784970;80;21256;-81
2021/04/11 00:49:06;;;;;;;9.73;5.05;;;7.50;60.90;;;;;;1784830;80;21287;-81
2021/04/11 00:51:34;;;;;;;11.25;5.40;;;7.50;60.80;;;;;;1785265;80;21144;-80
2021/04/11 00:54:06;;;;;;;11.00;5.00;;;7.50;61.00;;;;;;1785063;80;21185;-82
2021/04/11 00:56:38;;;;;;;10.18;5.00;;;7.50;62.10;;;;;;1785038;80;21284;-80
2021/04/11 00:59:09;;;;;;;10.28;5.20;;;7.40;62.30;;;;;;1785017;80;21276;-81
2021/04/11 01:01:40;;;;;;;11.40;4.85;;;7.30;61.40;;;;;;1784975;80;21259;-81
2021/04/11 01:04:14;;;;;;;10.63;5.17;;;7.20;60.80;;;;;;1785588;80;21556;-81
2021/04/11 01:06:58;;;;;;;11.35;4.58;;;7.20;61.90;;;;;;1784986;80;21292;-81
2021/04/11 01:09:36;;;;;;;11.95;4.78;;;7.20;61.70;;;;;;1783598;80;21623;-81
2021/04/11 01:12:11;;;;;;;11.18;4.80;;;7.30;61.80;;;;;;1785181;80;21126;-80
2021/04/11 01:14:41;;;;;;;11.48;4.80;;;7.30;61.30;;;;;;1784948;80;21276;-80
2021/04/11 01:17:15;;;;;;;10.35;4.92;;;7.30;62.00;;;;;;1785095;80;21271;-80
2021/04/11 01:19:47;;;;;;;11.65;4.65;;;7.30;61.30;;;;;;1785064;80;21275;-80
2021/04/11 01:22:29;;;;;;;10.82;4.50;;;7.30;62.30;;;;;;1785185;80;21154;-81
2021/04/11 01:25:06;;;;;;;10.25;4.87;;;7.30;62.90;;;;;;1784025;80;21153;-79
2021/04/11 01:27:37;;;;;;;11.22;4.87;;;7.20;62.60;;;;;;1785552;80;21169;-80
2021/04/11 01:30:10;;;;;;;11.75;5.12;;;7.00;62.60;;;;;;1785188;80;21525;-80
2021/04/11 01:32:42;;;;;;;10.13;4.65;;;6.90;62.40;;;;;;1783368;80;21291;-80
2021/04/11 01:35:15;;;;;;;9.53;4.80;;;7.00;62.00;;;;;;1757210;80;21153;-80
2021/04/11 01:37:45;;;;;;;6.92;4.03;;;7.10;62.30;;;;;;1780618;80;21284;-80
2021/04/11 01:40:17;;;;;;;8.50;4.62;;;7.00;63.10;;;;;;1779327;81;21292;-81
2021/04/11 01:42:45;;;;;;;9.40;4.60;;;6.90;62.60;;;;;;1779365;80;21279;-81
2021/04/11 01:45:14;;;;;;;11.38;4.78;;;6.90;62.90;;;;;;1779341;80;21289;-81
2021/04/11 01:47:43;;;;;;;11.45;4.70;;;6.90;62.60;;;;;;1779332;80;21280;-82
2021/04/11 01:50:12;;;;;;;9.15;5.17;;;6.90;63.00;;;;;;1779488;81;21122;-82
2021/04/11 01:52:41;;;;;;;8.10;4.45;;;6.80;63.50;;;;;;1779626;80;21157;-82
2021/04/11 01:55:12;;;;;;;11.95;5.03;;;6.80;63.50;;;;;;1779525;80;21549;-83
2021/04/11 01:57:41;;;;;;;10.58;4.85;;;6.90;63.30;;;;;;1779445;80;21161;-83
2021/04/11 02:00:22;;;;;;;13.18;5.37;;;6.80;63.60;;;;;;1779065;80;21299;-83
2021/04/11 02:02:59;;;;;;;13.13;5.03;;;6.80;63.90;;;;;;1737099;80;21170;-81
2021/04/11 02:05:29;;;;;;;11.75;5.87;;;6.70;63.80;;;;;;1779469;80;21284;-83
2021/04/11 02:07:58;;;;;;;14.33;5.78;;;6.70;62.80;;;;;;1779317;80;21300;-83
2021/04/11 02:10:32;;;;;;;13.72;6.45;;;6.70;63.60;;;;;;1778685;80;21177;-81
2021/04/11 02:13:12;;;;;;;11.65;5.55;;;6.70;62.40;;;;;;1770292;81;21600;-81
2021/04/11 02:15:46;;;;;;;12.40;6.03;;;6.70;62.20;;;;;;1779342;80;21589;-80
2021/04/11 02:18:16;;;;;;;14.38;6.00;;;6.80;61.60;;;;;;1778533;80;21312;-80
2021/04/11 02:20:45;;;;;;;13.80;6.28;;;6.80;61.60;;;;;;1758113;81;21142;-81
2021/04/11 02:23:16;;;;;;;12.75;6.20;;;6.90;61.00;;;;;;1779806;80;21150;-81
2021/04/11 02:25:48;;;;;;;11.80;5.08;;;6.90;61.00;;;;;;1779506;81;21255;-81
2021/04/11 02:28:22;;;;;;;11.10;5.65;;;6.80;61.20;;;;;;1779583;80;21260;-80
2021/04/11 02:31:16;;;;;;;12.55;6.00;;;6.70;60.40;;;;;;1779731;80;21134;-82
2021/04/11 02:34:01;;;;;;;10.13;5.40;;;6.70;63.30;;;;;;1779389;80;21118;-82
2021/04/11 02:36:46;;;;;;;12.07;5.62;;;6.70;63.70;;;;;;1779159;80;21367;-82
2021/04/11 02:39:20;;;;;;;13.58;5.30;;;6.60;64.10;;;;;;1779486;81;21695;-82
2021/04/11 02:41:49;;;;;;;12.65;5.65;;;6.60;63.60;;;;;;1779510;81;21544;-84
2021/04/11 02:44:19;;;;;;;11.22;5.17;;;6.50;63.60;;;;;;1779835;80;21145;-83
2021/04/11 02:46:49;;;;;;;12.70;5.58;;;6.50;64.80;;;;;;1779251;81;21150;-83
2021/04/11 02:49:21;;;;;;;12.43;5.03;;;6.50;63.80;;;;;;1779356;80;21304;-82
2021/04/11 02:51:53;;;;;;;9.83;4.90;;;6.50;64.10;;;;;;1779395;81;21287;-81
2021/04/11 02:54:25;;;;;;;9.53;4.83;;;6.40;64.10;;;;;;1779267;80;21162;-81
2021/04/11 02:56:54;;;;;;;11.65;5.28;;;6.40;64.60;;;;;;1778796;80;21597;-80
2021/04/11 02:59:26;;;;;;;10.98;5.22;;;6.60;65.10;;;;;;1779030;80;21118;-80
2021/04/11 03:01:57;;;;;;;13.20;5.70;;;6.60;64.60;;;;;;1778813;80;21134;-80
2021/04/11 03:04:26;;;;;;;11.93;6.12;;;6.60;63.90;;;;;;1757449;81;21157;-80
2021/04/11 03:07:18;;;;;;;16.35;6.72;;;6.60;64.00;;;;;;1779634;81;21146;-80
2021/04/11 03:09:52;;;;;;;13.53;6.53;;;6.60;63.70;;;;;;1779537;80;21564;-81
2021/04/11 03:12:22;;;;;;;12.65;6.42;;;6.50;64.20;;;;;;1779193;80;21272;-79
2021/04/11 03:14:52;;;;;;;13.72;6.90;;;6.50;64.00;;;;;;1779388;81;21149;-80
2021/04/11 03:17:24;;;;;;;13.28;6.08;;;6.40;64.20;;;;;;1779333;80;21734;-80
2021/04/11 03:20:14;;;;;;;11.20;5.62;;;6.30;64.60;;;;;;1779190;80;21149;-79
2021/04/11 03:22:44;;;;;;;10.65;5.72;;;6.20;64.70;;;;;;1779194;80;21738;-80
2021/04/11 03:25:14;;;;;;;10.78;5.42;;;6.10;64.90;;;;;;1779420;80;21138;-80
2021/04/11 03:28:13;;;;;;;11.22;5.37;;;6.10;65.20;;;;;;1779233;80;21284;-80
2021/04/11 03:30:44;;;;;;;;;;;6.20;65.50;;;;;;1781867;80;21276;-81
2021/04/11 03:33:16;;;;;;;10.43;5.22;;;6.20;65.30;;;;;;1779285;80;20544;-82
2021/04/11 03:35:49;;;;;;;11.12;5.42;;;6.10;65.80;;;;;;1779410;81;21157;-81
2021/04/11 03:38:23;;;;;;;9.28;5.10;;;6.00;66.00;;;;;;1779268;80;21753;-81
2021/04/11 03:40:57;;;;;;;9.55;5.00;;;5.90;66.20;;;;;;1779260;81;21280;-82
2021/04/11 03:43:42;;;;;;;9.88;5.00;;;5.90;66.70;;;;;;1779257;80;21280;-81
2021/04/11 03:46:19;;;;;;;10.28;5.03;;;6.00;66.50;;;;;;1768865;81;21276;-81
2021/04/11 03:48:58;;;;;;;8.18;4.25;;;6.00;67.10;;;;;;1779225;80;21296;-81
2021/04/11 03:51:30;;;;;;;8.88;4.17;;;5.80;66.30;;;;;;1779307;80;21710;-80
2021/04/11 03:54:16;;;;;;;11.18;5.35;;;5.90;66.80;;;;;;1779868;81;21141;-81
2021/04/11 03:56:56;;;;;;;12.53;5.15;;;5.90;66.80;;;;;;1777162;80;21742;-83
2021/04/11 03:59:28;;;;;;;9.45;4.72;;;5.80;66.90;;;;;;1778958;80;21268;-83
2021/04/11 04:02:00;;;;;;;12.20;5.42;;;5.80;67.30;;;;;;1779427;80;21135;-82
2021/04/11 04:04:33;;;;;;;8.05;4.67;;;5.90;68.00;;;;;;1779112;80;21162;-81
2021/04/11 04:07:14;;;;;;;11.73;4.90;;;6.00;67.20;;;;;;1778738;80;21726;-81
2021/04/11 04:09:52;;;;;;;12.10;5.65;;;5.90;68.30;;;;;;1778760;80;21726;-81
2021/04/11 04:12:31;;;;;;;12.30;5.42;;;5.90;68.50;;;;;;1779150;80;21288;-81
2021/04/11 04:15:20;;;;;;;12.03;5.45;;;5.90;68.00;;;;;;1779273;80;21723;-81
2021/04/11 04:18:26;;;;;;;15.08;5.40;;;5.90;66.90;;;;;;1779418;81;21133;-81
2021/04/11 04:21:09;;;;;;;10.30;5.17;;;5.90;66.90;;;;;;1779243;80;21145;-80
2021/04/11 04:24:04;;;;;;;11.18;4.87;;;5.90;66.40;;;;;;1778341;80;21287;-81
2021/04/11 04:26:44;;;;;;;14.40;6.85;;;5.90;65.80;;;;;;1779142;80;21153;-81
2021/04/11 04:29:27;;;;;;;15.58;7.20;;;5.90;65.90;;;;;;1779202;81;21138;-82
2021/04/11 04:32:22;;;;;;;17.32;7.97;;;5.90;65.90;;;;;;1779295;80;21703;-82
2021/04/11 04:35:03;;;;;;;14.55;8.68;;;5.90;65.60;;;;;;1778395;80;21319;-82
2021/04/11 04:37:53;;;;;;;17.17;7.70;;;5.80;66.00;;;;;;1781899;80;21315;-81
2021/04/11 04:40:50;;;;;;;15.43;7.50;;;5.80;66.00;;;;;;1787810;80;21287;-82
2021/04/11 04:43:36;;;;;;;13.88;8.00;;;5.90;66.50;;;;;;1787944;80;21125;-82
2021/04/11 04:46:13;;;;;;;14.13;7.10;;;5.90;66.50;;;;;;1785191;80;21141;-82
2021/04/11 04:48:55;;;;;;;14.65;7.97;;;6.00;67.10;;;;;;1788270;80;21094;-82
2021/04/11 04:51:32;;;;;;;19.30;8.25;;;6.10;66.30;;;;;;1787899;80;21288;-82
2021/04/11 04:54:16;;;;;;;16.40;7.95;;;6.10;66.50;;;;;;1787101;79;21280;-82
2021/04/11 04:57:05;;;;;;;21.35;7.85;;;6.10;66.60;;;;;;1787836;80;21166;-81
2021/04/11 04:59:48;;;;;;;14.63;7.03;;;6.20;65.70;;;;;;1741221;80;21157;-82
2021/04/11 05:02:23;;;;;;;13.30;6.65;;;6.30;65.60;;;;;;1788060;80;21153;-83
2021/04/11 05:04:58;;;;;;;14.68;6.33;;;6.30;66.90;;;;;;1786546;80;21268;-83
2021/04/11 05:07:32;;;;;;;13.60;6.78;;;6.30;65.70;;;;;;1788097;80;21287;-82
2021/04/11 05:10:14;;;;;;;14.90;6.53;;;6.40;65.80;;;;;;1787976;80;21584;-82
2021/04/11 05:13:04;;;;;;;14.63;6.17;;;6.50;65.40;;;;;;1788142;80;21130;-82
2021/04/11 05:15:46;;;;;;;;;;;6.50;65.40;;;;;;1790619;80;21284;-82
2021/04/11 05:18:27;;;;;;;15.40;7.40;;;6.60;65.70;;;;;;1787587;80;20140;-82
2021/04/11 05:21:02;;;;;;;14.00;7.25;;;6.60;65.70;;;;;;1785936;80;21153;-82
2021/04/11 05:24:02;;;;;;;12.70;7.00;;;6.70;66.40;;;;;;1787821;80;21102;-82
2021/04/11 05:26:42;;;;;;;14.73;7.12;;;6.90;65.20;;;;;;1722417;80;21160;-81
2021/04/11 05:29:52;;;;;;;14.20;7.20;;;7.10;64.60;;;;;;1787747;80;21288;-82
2021/04/11 05:32:22;;;;;;;15.60;7.30;;;7.10;64.00;;;;;;1787887;80;21122;-82
2021/04/11 05:34:51;;;;;;;16.25;7.95;;;7.30;63.40;;;;;;1788084;80;21576;-82
2021/04/11 05:37:43;;;;;;;19.77;10.70;;;7.40;62.60;;;;;;1787511;80;21302;-82
2021/04/11 05:40:26;;;;;;;14.50;7.62;;;7.60;62.10;;;;;;1785361;80;21149;-82
2021/04/11 05:43:27;;;;;;;15.80;7.97;;;7.70;61.30;;;;;;1785418;80;21110;-82
2021/04/11 05:46:17;;;;;;;14.45;7.87;;;7.80;61.10;;;;;;1784546;80;21272;-82
2021/04/11 05:48:56;;;;;;;18.75;9.00;;;7.80;60.30;;;;;;1783773;80;21157;-82
2021/04/11 05:51:32;;;;;;;16.55;8.25;;;8.00;60.60;;;;;;1785193;80;21690;-82
2021/04/11 05:54:22;;;;;;;14.75;7.92;;;8.10;60.30;;;;;;1785094;80;21324;-81
2021/04/11 05:56:56;;;;;;;18.02;8.50;;;8.10;59.70;;;;;;1785105;80;21150;-81
2021/04/11 05:59:31;;;;;;;17.85;9.48;;;8.20;59.90;;;;;;1785037;80;21145;-82
2021/04/11 06:02:02;;;;;;;20.05;9.85;;;8.30;59.50;;;;;;1785756;80;21149;-82
2021/04/11 06:04:47;;;;;;;18.73;8.93;;;8.40;59.20;;;;;;1785152;80;21288;-82
2021/04/11 06:07:33;;;;;;;16.15;9.20;;;8.40;59.60;;;;;;1784837;80;21615;-82
2021/04/11 06:10:18;;;;;;;20.85;9.25;;;8.50;59.70;;;;;;1785638;80;21532;-81
2021/04/11 06:13:06;;;;;;;22.48;9.98;;;8.60;59.30;;;;;;1785137;79;21584;-82
2021/04/11 06:15:42;;;;;;;16.97;9.58;;;8.70;58.50;;;;;;1785069;80;21146;-82
2021/04/11 06:18:10;;;;;;;21.65;10.48;;;8.80;58.80;;;;;;1785300;80;21584;-82
2021/04/11 06:20:38;;;;;;;20.40;10.75;;;8.90;57.90;;;;;;1785420;80;21153;-81
2021/04/11 06:23:20;;;;;;;20.05;10.23;;;9.00;57.60;;;;;;1785183;80;21161;-82
2021/04/11 06:25:56;;;;;;;19.55;10.48;;;9.10;57.80;;;;;;1784809;80;21157;-81
2021/04/11 06:28:58;;;;;;;20.02;10.98;;;9.20;57.20;;;;;;1781951;80;21328;-82
2021/04/11 06:31:35;;;;;;;22.65;11.63;;;9.30;57.20;;;;;;1785068;80;21275;-81
2021/04/11 06:34:06;;;;;;;;;;;9.40;57.70;;;;;;1787721;80;21276;-81
2021/04/11 06:36:41;;;;;;;22.77;11.15;;;9.50;58.20;;;;;;1785158;80;20142;-80
2021/04/11 06:39:35;;;;;;;24.63;12.03;;;9.50;57.50;;;;;;1781065;80;21295;-81
2021/04/11 06:42:12;;;;;;;22.42;11.35;;;9.60;56.40;;;;;;1779285;81;21300;-81
2021/04/11 06:45:09;;;;;;;21.90;12.25;;;9.80;56.40;;;;;;1779321;80;21284;-84
2021/04/11 06:48:00;;;;;;;24.50;13.48;;;9.90;55.80;;;;;;1756211;80;21275;-81
2021/04/11 06:50:58;;;;;;;23.30;13.53;;;10.00;55.50;;;;;;1778759;80;21143;-81
2021/04/11 06:53:40;;;;;;;29.82;13.53;;;10.10;55.40;;;;;;1779601;81;21142;-82
2021/04/11 06:56:34;;;;;;;26.07;13.40;;;10.20;54.90;;;;;;1779836;81;21119;-82
2021/04/11 06:59:33;;;;;;;25.10;13.62;;;10.20;55.20;;;;;;1779401;81;21703;-82
2021/04/11 07:02:32;;;;;;;22.65;13.43;;;10.30;54.90;;;;;;1779467;80;21138;-82
2021/04/11 07:05:14;;;;;;;27.62;13.78;;;10.40;54.80;;;;;;1778579;80;21288;-81
2021/04/11 07:08:05;;;;;;;25.82;13.62;;;10.50;54.40;;;;;;1684927;83;21622;-81
2021/04/11 07:11:01;;;;;;;26.80;14.70;;;10.60;54.40;;;;;;1777966;80;21130;-81
2021/04/11 07:13:51;;;;;;;25.30;14.37;;;10.70;54.10;;;;;;1779497;80;21158;-81
2021/04/11 07:16:48;;;;;;;23.07;14.05;;;10.80;54.30;;;;;;1779483;81;21150;-81
2021/04/11 07:19:27;;;;;;;25.17;14.73;;;11.00;53.90;;;;;;1779171;80;21150;-81
2021/04/11 07:22:15;;;;;;;24.10;13.62;;;11.10;53.60;;;;;;1779251;80;21300;-81
2021/04/11 07:25:20;;;;;;;25.97;14.87;;;11.20;53.20;;;;;;1779438;81;21541;-81
2021/04/11 07:28:03;;;;;;;27.45;14.20;;;11.30;53.30;;;;;;1778857;80;21279;-81
2021/04/11 07:31:11;;;;;;;26.25;15.45;;;11.40;52.60;;;;;;1743911;80;21153;-81
2021/04/11 07:33:54;;;;;;;;;;;11.60;52.80;;;;;;1725727;83;21159;-82
2021/04/11 07:36:50;;;;;;;25.85;14.38;;;11.70;52.70;;;;;;1723045;83;20160;-82
2021/04/11 07:39:55;;;;;;;28.90;15.70;;;11.90;52.30;;;;;;1760652;80;21173;-81
2021/04/11 07:42:51;;;;;;;26.77;15.23;;;12.10;52.20;;;;;;1779220;80;21163;-82
2021/04/11 07:45:45;;;;;;;26.17;15.72;;;12.40;52.00;;;;;;1779264;81;21145;-81
2021/04/11 07:48:48;;;;;;;29.82;15.38;;;12.70;51.20;;;;;;1779427;81;21138;-80
2021/04/11 07:51:50;;;;;;;26.97;15.93;;;13.10;51.00;;;;;;1779210;81;21299;-80
2021/04/11 07:54:29;;;;;;;32.28;17.15;;;13.50;49.90;;;;;;1779246;81;21280;-81
2021/04/11 07:57:29;;;;;;;29.02;16.75;;;14.00;48.80;;;;;;1779390;81;21596;-81
2021/04/11 08:00:21;;;;;;;32.55;16.67;;;14.30;48.20;;;;;;1779499;80;21158;-80
2021/04/11 08:03:06;;;;;;;39.90;16.07;;;14.70;47.40;;;;;;1779333;80;21707;-80
2021/04/11 08:05:59;;;;;;;27.98;16.12;;;15.30;46.70;;;;;;1779341;80;21292;-80
2021/04/11 08:09:02;;;;;;;26.37;15.68;;;16.10;45.30;;;;;;1779293;80;21719;-80
2021/04/11 08:12:14;;;;;;;27.07;15.05;;;17.00;43.50;;;;;;1779163;81;21699;-80
2021/04/11 08:15:02;;;;;;;28.83;15.75;;;17.90;42.10;;;;;;1779327;80;21723;-82
2021/04/11 08:17:41;;;;;;;23.60;14.38;;;18.70;40.40;;;;;;1777866;80;21162;-80
2021/04/11 08:20:53;;;;;;;25.10;14.45;;;19.40;39.10;;;;;;1779234;80;21130;-81
2021/04/11 08:23:32;;;;;;;24.27;13.93;;;19.80;37.10;;;;;;1779522;81;21141;-80
2021/04/11 08:26:33;;;;;;;19.42;13.08;;;20.30;36.60;;;;;;1779535;80;21125;-80
2021/04/11 08:29:28;;;;;;;18.90;13.08;;;20.70;35.80;;;;;;1779027;81;21134;-80
2021/04/11 08:32:10;;;;;;;23.15;12.45;;;21.10;34.60;;;;;;1779195;80;21272;-80
2021/04/11 08:35:16;;;;;;;24.00;12.63;;;21.40;33.70;;;;;;1779387;81;21257;-80
2021/04/11 08:38:07;;;;;;;20.67;12.27;;;21.80;33.30;;;;;;1723208;83;21147;-80
2021/04/11 08:41:04;;;;;;;18.37;11.00;;;22.00;33.70;;;;;;1723220;83;21538;-80
2021/04/11 08:44:17;;;;;;;13.62;8.80;;;22.20;30.50;;;;;;1764112;80;21150;-80
2021/04/11 08:47:16;;;;;;;13.98;8.68;;;22.20;27.70;;;;;;1779243;80;21150;-80
2021/04/11 08:49:56;;;;;;;14.00;8.05;;;21.90;29.00;;;;;;1778569;80;21270;-80
2021/04/11 08:52:55;;;;;;;12.43;7.50;;;21.80;28.60;;;;;;1779478;80;21271;-80
2021/04/11 08:56:03;;;;;;;11.78;6.95;;;21.80;28.40;;;;;;1779477;81;21150;-79
2021/04/11 08:58:49;;;;;;;11.75;8.05;;;21.80;28.40;;;;;;1779267;80;21727;-80
2021/04/11 09:01:39;;;;;;;13.20;6.57;;;21.60;28.20;;;;;;1779657;81;21134;-80
2021/04/11 09:04:32;;;;;;;10.75;6.10;;;21.50;27.40;;;;;;1778986;80;21146;-79
2021/04/11 09:07:17;;;;;;;10.13;6.00;;;21.40;27.60;;;;;;1779258;80;21354;-80
2021/04/11 09:10:23;;;;;;;9.95;5.50;;;21.40;27.40;;;;;;1779534;81;21715;-79
2021/04/11 09:13:34;;;;;;;11.60;7.17;;;21.40;27.50;;;;;;1779037;80;21288;-81
2021/04/11 09:16:25;;;;;;;9.48;5.87;;;21.20;26.60;;;;;;1779285;81;21235;-79
2021/04/11 09:19:33;;;;;;;13.70;6.25;;;20.90;27.60;;;;;;1779578;81;21169;-80
2021/04/11 09:22:43;;;;;;;10.28;5.80;;;20.70;27.70;;;;;;1779092;80;21153;-80
2021/04/11 09:25:26;;;;;;;11.43;6.70;;;20.70;28.50;;;;;;1779308;80;21252;-79
2021/04/11 09:28:26;;;;;;;11.70;6.03;;;20.50;27.80;;;;;;1779082;80;21694;-79
2021/04/11 09:31:32;;;;;;;12.53;6.20;;;20.20;27.60;;;;;;1779264;80;21279;-80
2021/04/11 09:34:51;;;;;;;9.23;5.42;;;20.10;28.10;;;;;;1779306;81;21722;-79
2021/04/11 09:37:54;;;;;;;11.15;6.42;;;19.80;28.20;;;;;;1779339;81;21568;-80
2021/04/11 09:40:44;;;;;;;13.50;6.78;;;19.60;28.70;;;;;;1783848;80;21161;-80
2021/04/11 09:43:35;;;;;;;15.58;7.33;;;19.30;29.10;;;;;;1783363;80;21173;-81
2021/04/11 09:46:32;;;;;;;12.98;7.53;;;19.20;29.40;;;;;;1784775;80;21289;-81
2021/04/11 09:49:22;;;;;;;;;;;19.00;29.10;;;;;;1787842;80;21291;-80
2021/04/11 09:52:32;;;;;;;13.55;6.60;;;18.80;29.40;;;;;;1784881;80;20131;-80
2021/04/11 09:55:23;;;;;;;11.12;6.20;;;18.70;29.70;;;;;;1785178;80;21137;-80
2021/04/11 09:58:13;;;;;;;12.85;6.58;;;18.60;29.60;;;;;;1785494;80;21137;-80
2021/04/11 10:01:18;;;;;;;12.60;6.75;;;18.50;29.80;;;;;;1785098;80;21284;-79
2021/04/11 10:04:32;;;;;;;12.40;5.97;;;18.50;29.80;;;;;;1785170;80;21711;-79
2021/04/11 10:07:41;;;;;;;10.08;5.53;;;18.50;29.80;;;;;;1785207;80;21145;-79
2021/04/11 10:10:39;;;;;;;13.05;5.60;;;18.50;29.90;;;;;;1785055;80;21319;-80
2021/04/11 10:13:54;;;;;;;9.90;5.37;;;18.40;30.90;;;;;;1785178;80;21146;-79
2021/04/11 10:16:30;;;;;;;10.72;5.90;;;18.40;30.50;;;;;;1785200;80;21593;-79
2021/04/11 10:19:31;;;;;;;13.22;6.28;;;18.40;29.70;;;;;;1785283;80;21138;-80
2021/04/11 10:22:33;;;;;;;9.00;5.87;;;18.40;30.80;;;;;;1785067;80;21284;-79
2021/04/11 10:25:22;;;;;;;11.40;6.00;;;18.40;30.50;;;;;;1785104;80;21589;-80
2021/04/11 10:28:16;;;;;;;10.45;6.65;;;18.40;30.80;;;;;;1784881;80;21334;-82
2021/04/11 10:30:50;;;;;;;12.73;6.87;;;18.40;30.70;;;;;;1785336;80;21145;-79
2021/04/11 10:33:29;;;;;;;12.63;6.45;;;18.20;31.00;;;;;;1783128;80;21742;-80
2021/04/11 10:36:11;;;;;;;8.45;5.45;;;18.10;30.30;;;;;;1784461;80;21135;-80
2021/04/11 10:38:53;;;;;;;9.63;5.50;;;18.10;30.10;;;;;;1784105;80;21315;-80
2021/04/11 10:41:58;;;;;;;9.98;5.55;;;18.10;31.20;;;;;;1751524;81;21629;-80
2021/04/11 10:45:04;;;;;;;11.57;6.87;;;18.10;31.40;;;;;;1751165;81;21136;-80
2021/04/11 10:48:06;;;;;;;13.10;7.42;;;18.00;30.90;;;;;;1681492;85;21170;-80
2021/04/11 10:50:45;;;;;;;9.73;5.80;;;18.10;31.70;;;;;;1681539;85;21572;-80
2021/04/11 10:53:30;;;;;;;14.60;6.17;;;18.00;31.10;;;;;;1737761;82;21210;-80
2021/04/11 10:56:03;;;;;;;9.50;5.55;;;17.90;30.70;;;;;;1752901;82;21537;-81
2021/04/11 10:59:15;;;;;;;9.58;5.97;;;17.70;30.30;;;;;;1752284;81;21622;-82
2021/04/11 11:02:10;;;;;;;10.53;5.60;;;17.60;31.20;;;;;;1752466;82;21124;-80
2021/04/11 11:05:37;;;;;;;10.23;5.58;;;17.60;31.50;;;;;;1752248;82;21132;-80
2021/04/11 11:08:19;;;;;;;10.58;5.83;;;17.60;32.10;;;;;;1752620;82;21559;-81
2021/04/11 11:11:22;;;;;;;10.03;5.60;;;17.60;31.70;;;;;;1748995;81;21601;-80
2021/04/11 11:14:39;;;;;;;27.40;6.53;;;17.60;31.40;;;;;;1751618;82;21605;-80
2021/04/11 11:17:45;;;;;;;9.55;4.78;;;17.60;32.60;;;;;;1752553;82;21154;-85
2021/04/11 11:20:18;;;;;;;8.25;4.75;;;17.70;31.50;;;;;;1752638;82;21183;-81
2021/04/11 11:23:16;;;;;;;9.73;5.65;;;17.70;31.60;;;;;;1752230;82;21139;-80
2021/04/11 11:26:40;;;;;;;10.43;4.87;;;17.80;31.40;;;;;;1751295;81;21171;-80
2021/04/11 11:29:57;;;;;;;8.73;4.72;;;17.70;30.30;;;;;;1751572;81;21163;-81
2021/04/11 11:33:00;;;;;;;9.45;4.90;;;17.70;30.90;;;;;;1750341;82;21172;-80
2021/04/11 11:35:29;;;;;;;18.05;4.50;;;17.60;30.70;;;;;;1752283;82;21581;-80
2021/04/11 11:38:14;;;;;;;8.90;4.05;;;17.70;31.00;;;;;;1752875;82;21168;-80
2021/04/11 11:41:06;;;;;;;10.65;3.98;;;17.70;29.90;;;;;;1776643;80;21141;-81
2021/04/11 11:44:11;;;;;;;8.38;4.17;;;17.70;30.10;;;;;;1745289;80;21177;-82
2021/04/11 11:47:13;;;;;;;7.75;4.20;;;17.80;31.10;;;;;;1766435;80;21149;-80
2021/04/11 11:50:11;;;;;;;7.67;4.25;;;17.80;31.00;;;;;;1787897;80;21731;-81
2021/04/11 11:52:47;;;;;;;10.60;4.40;;;17.90;30.20;;;;;;1787424;80;21275;-81
2021/04/11 11:55:24;;;;;;;;;;;17.90;30.50;;;;;;1789995;80;21188;-81
2021/04/11 11:58:06;;;;;;;9.00;4.10;;;17.80;30.70;;;;;;1787416;79;20131;-81
2021/04/11 12:00:39;;;;;;;11.73;3.92;;;17.90;30.20;;;;;;1787988;80;21312;-81
2021/04/11 12:03:31;;;;;;;8.83;4.22;;;17.80;29.90;;;;;;1787777;80;21647;-80
2021/04/11 12:06:35;;;;;;;7.37;4.10;;;17.80;31.60;;;;;;1787845;80;21707;-80
2021/04/11 12:09:29;;;;;;;8.00;3.60;;;17.80;31.80;;;;;;1787875;80;21312;-80
2021/04/11 12:12:24;;;;;;;10.65;3.95;;;17.90;31.00;;;;;;1786612;79;21157;-80
2021/04/11 12:15:14;;;;;;;10.25;4.70;;;18.00;31.00;;;;;;1787355;80;21308;-81
2021/04/11 12:17:56;;;;;;;9.83;4.22;;;18.00;31.30;;;;;;1786155;80;21153;-80
2021/04/11 12:20:32;;;;;;;10.18;4.20;;;18.10;30.60;;;;;;1788066;80;21319;-80
2021/04/11 12:23:08;;;;;;;10.88;4.50;;;18.10;31.40;;;;;;1787981;80;21279;-80
2021/04/11 12:25:37;;;;;;;;;;;18.10;30.50;;;;;;1790425;79;21165;-82
2021/04/11 12:28:19;;;;;;;10.35;4.75;;;18.00;31.20;;;;;;1787869;80;20226;-80
2021/04/11 12:30:47;;;;;;;9.35;4.72;;;17.90;30.90;;;;;;1787779;80;21135;-81
2021/04/11 12:33:58;;;;;;;8.88;4.35;;;17.90;31.00;;;;;;1787971;80;21153;-80
2021/04/11 12:36:52;;;;;;;8.48;5.10;;;17.90;31.20;;;;;;1788024;80;21308;-81
2021/04/11 12:39:25;;;;;;;9.48;4.80;;;17.90;31.90;;;;;;1787536;80;21160;-81
2021/04/11 12:42:01;;;;;;;11.73;4.50;;;17.80;31.80;;;;;;1784714;80;21136;-81
2021/04/11 12:45:10;;;;;;;7.60;4.70;;;17.90;32.10;;;;;;1784203;80;21454;-81
2021/04/11 12:47:58;;;;;;;10.58;4.55;;;17.90;31.80;;;;;;1784687;80;21159;-81
2021/04/11 12:50:43;;;;;;;8.23;4.62;;;17.90;30.90;;;;;;1784689;80;21171;-81
2021/04/11 12:53:25;;;;;;;9.40;4.35;;;18.00;30.60;;;;;;1784511;80;21138;-81
2021/04/11 12:55:58;;;;;;;9.50;4.62;;;18.00;31.40;;;;;;1784212;80;21309;-81
2021/04/11 12:58:55;;;;;;;9.30;4.78;;;18.10;31.50;;;;;;1784791;80;21566;-82
2021/04/11 13:01:37;;;;;;;10.82;4.55;;;18.20;31.90;;;;;;1784852;80;21139;-81
2021/04/11 13:04:28;;;;;;;10.70;4.40;;;18.20;31.60;;;;;;1784687;80;21159;-81
2021/04/11 13:07:25;;;;;;;8.93;4.45;;;18.20;30.70;;;;;;1784690;80;21151;-81
2021/04/11 13:10:29;;;;;;;7.85;4.12;;;18.30;31.90;;;;;;1784534;80;21159;-80
2021/04/11 13:13:20;;;;;;;10.43;4.55;;;18.40;31.40;;;;;;1784901;80;21561;-81
2021/04/11 13:16:08;;;;;;;8.95;4.47;;;18.50;30.60;;;;;;1784779;80;21285;-82
2021/04/11 13:19:22;;;;;;;8.30;4.10;;;18.50;30.50;;;;;;1784146;80;21111;-81
2021/04/11 13:22:10;;;;;;;7.90;3.90;;;18.50;30.70;;;;;;1784145;80;21163;-81
2021/04/11 13:24:56;;;;;;;8.80;3.90;;;18.60;30.40;;;;;;1784767;80;21273;-81
2021/04/11 13:27:40;;;;;;;;;;;18.60;30.20;;;;;;1787624;80;21136;-80
2021/04/11 13:30:19;;;;;;;8.35;4.12;;;18.60;29.90;;;;;;1785261;80;20385;-78
2021/04/11 13:33:23;;;;;;;7.53;3.87;;;18.50;29.40;;;;;;1785107;80;21297;-79
2021/04/11 13:36:04;;;;;;;8.33;3.85;;;18.50;29.70;;;;;;1784848;80;21139;-80
2021/04/11 13:38:39;;;;;;;6.50;3.90;;;18.50;29.90;;;;;;1785063;80;21605;-79
2021/04/11 13:41:27;;;;;;;7.80;4.20;;;18.50;30.10;;;;;;1781688;80;21284;-79
2021/04/11 13:44:28;;;;;;;8.30;4.00;;;18.40;30.00;;;;;;1779314;80;21272;-79
2021/04/11 13:47:07;;;;;;;8.98;3.90;;;18.40;30.00;;;;;;1779109;80;21146;-79
2021/04/11 13:50:03;;;;;;;6.03;3.62;;;18.40;30.00;;;;;;1779506;81;21138;-80
2021/04/11 13:52:58;;;;;;;10.10;3.80;;;18.30;29.80;;;;;;1779809;80;21137;-80
2021/04/11 13:55:59;;;;;;;6.78;3.47;;;18.30;30.20;;;;;;1780005;80;21545;-80
2021/04/11 13:58:53;;;;;;;9.20;4.03;;;18.40;29.90;;;;;;1723253;83;21182;-79
2021/04/11 14:01:42;;;;;;;6.50;3.87;;;18.40;29.70;;;;;;1776332;80;21145;-81
2021/04/11 14:04:30;;;;;;;9.38;3.40;;;18.50;29.70;;;;;;1779533;80;21580;-81
2021/04/11 14:07:19;;;;;;;7.03;3.87;;;18.50;29.60;;;;;;1779273;81;21680;-82
2021/04/11 14:09:58;;;;;;;6.62;3.55;;;18.50;29.50;;;;;;1778868;80;21329;-81
2021/04/11 14:12:32;;;;;;;6.95;3.22;;;18.50;29.60;;;;;;1778808;80;21146;-83
2021/04/11 14:15:08;;;;;;;7.05;3.20;;;18.40;29.60;;;;;;1778833;80;21137;-81
2021/04/11 14:17:48;;;;;;;;;;;18.40;29.80;;;;;;1781914;81;21296;-82